createdAt,value
2023-04-25T00:02:01.860Z,9.71
2023-04-25T00:04:31.165Z,9.68
2023-04-25T00:07:02.495Z,9.64
2023-04-25T00:09:30.787Z,9.60
2023-04-25T00:11:58.683Z,9.58
2023-04-25T00:14:26.742Z,9.56
2023-04-25T00:16:55.200Z,9.54
2023-04-25T00:19:23.189Z,9.52
2023-04-25T00:21:51.209Z,9.50
2023-04-25T00:24:19.128Z,9.47
2023-04-25T00:26:47.013Z,9.46
2023-04-25T00:29:14.898Z,9.44
2023-04-25T00:31:42.824Z,9.43
2023-04-25T00:34:10.749Z,9.43
2023-04-25T00:36:39.188Z,9.42
2023-04-25T00:39:07.610Z,9.42
2023-04-25T00:41:35.769Z,9.40
2023-04-25T00:44:07.880Z,9.38
2023-04-25T00:46:36.697Z,9.37
2023-04-25T00:49:05.122Z,9.36
2023-04-25T00:51:34.019Z,9.36
2023-04-25T00:54:02.613Z,9.35
2023-04-25T00:56:31.196Z,9.34
2023-04-25T00:58:59.270Z,9.33
2023-04-25T01:01:27.394Z,9.31
2023-04-25T01:03:56.264Z,9.27
2023-04-25T01:06:24.591Z,9.22
2023-04-25T01:08:52.915Z,9.17
2023-04-25T01:11:21.120Z,9.13
2023-04-25T01:13:49.221Z,9.09
2023-04-25T01:16:17.231Z,9.06
2023-04-25T01:18:46.655Z,9.03
2023-04-25T01:21:14.871Z,9.00
2023-04-25T01:23:43.843Z,8.98
2023-04-25T01:26:12.766Z,8.96
2023-04-25T01:28:44.214Z,8.93
2023-04-25T01:31:13.906Z,8.92
2023-04-25T01:33:41.850Z,8.93
2023-04-25T01:36:10.502Z,8.91
2023-04-25T01:38:38.920Z,8.89
2023-04-25T01:41:07.016Z,8.88
2023-04-25T01:43:35.102Z,8.88
2023-04-25T01:46:03.437Z,8.88
2023-04-25T01:48:31.523Z,8.88
2023-04-25T01:50:59.592Z,8.86
2023-04-25T01:53:27.877Z,8.85
2023-04-25T01:55:56.180Z,8.83
2023-04-25T01:58:26.025Z,8.82
2023-04-25T02:01:08.240Z,8.80
2023-04-25T02:03:41.397Z,8.78
2023-04-25T02:06:15.331Z,8.75
2023-04-25T02:08:45.786Z,8.73
2023-04-25T02:11:15.544Z,8.71
2023-04-25T02:13:49.454Z,8.70
2023-04-25T02:16:37.556Z,8.68
2023-04-25T02:19:05.901Z,8.65
2023-04-25T02:21:36.703Z,8.63
2023-04-25T02:24:05.932Z,8.61
2023-04-25T02:26:35.547Z,8.58
2023-04-25T02:29:03.512Z,8.55
2023-04-25T02:31:31.566Z,8.55
2023-04-25T02:33:59.573Z,8.53
2023-04-25T02:36:28.787Z,8.51
2023-04-25T02:38:56.683Z,8.50
2023-04-25T02:41:24.605Z,8.50
2023-04-25T02:43:52.768Z,8.48
2023-04-25T02:46:32.106Z,8.46
2023-04-25T02:49:07.882Z,8.44
2023-04-25T02:51:36.207Z,8.42
2023-04-25T02:54:04.697Z,8.42
2023-04-25T02:56:34.726Z,8.42
2023-04-25T02:59:02.781Z,8.42
2023-04-25T03:01:30.873Z,8.41
2023-04-25T03:03:58.751Z,8.41
2023-04-25T03:06:26.729Z,8.41
2023-04-25T03:08:54.549Z,8.39
2023-04-25T03:11:22.597Z,8.37
2023-04-25T03:13:50.739Z,8.35
2023-04-25T03:16:18.883Z,8.35
2023-04-25T03:18:46.788Z,8.34
2023-04-25T03:21:14.713Z,8.33
2023-04-25T03:23:42.733Z,8.33
2023-04-25T03:26:10.767Z,8.30
2023-04-25T03:28:38.785Z,8.29
2023-04-25T03:45:06.414Z,8.58
2023-04-25T03:47:35.838Z,8.65
2023-04-25T03:50:04.056Z,8.60
2023-04-25T03:52:32.142Z,8.56
2023-04-25T03:55:00.147Z,8.50
2023-04-25T03:57:28.130Z,8.46
2023-04-25T03:59:56.769Z,8.40
2023-04-25T04:02:25.933Z,8.35
2023-04-25T04:04:54.940Z,8.29
2023-04-25T04:07:23.245Z,8.24
2023-04-25T04:09:55.244Z,8.20
2023-04-25T04:12:31.400Z,8.14
2023-04-25T04:15:00.359Z,8.12
2023-04-25T04:17:29.006Z,8.12
2023-04-25T04:19:57.237Z,8.13
2023-04-25T04:22:25.900Z,8.17
2023-04-25T04:24:57.815Z,8.20
2023-04-25T04:27:47.179Z,8.23
2023-04-25T04:30:37.234Z,8.27
2023-04-25T04:33:08.646Z,8.30
2023-04-25T04:35:36.947Z,8.34
2023-04-25T04:38:05.157Z,8.38
2023-04-25T04:40:36.024Z,8.41
2023-04-25T04:43:11.736Z,8.44
2023-04-25T04:46:06.458Z,8.47
2023-04-25T04:48:35.451Z,8.50
2023-04-25T04:51:23.588Z,8.57
2023-04-25T04:54:11.863Z,8.65
2023-04-25T04:56:57.186Z,8.71
2023-04-25T04:59:41.458Z,8.77
2023-04-25T05:02:29.469Z,8.81
2023-04-25T05:05:23.447Z,8.86
2023-04-25T05:08:09.397Z,8.91
2023-04-25T05:10:55.887Z,8.98
2023-04-25T05:13:42.536Z,9.06
2023-04-25T05:16:37.204Z,9.10
2023-04-25T05:19:24.623Z,9.15
2023-04-25T05:22:03.694Z,9.20
2023-04-25T05:24:55.179Z,9.23
2023-04-25T05:27:53.502Z,9.32
2023-04-25T05:30:38.700Z,9.41
2023-04-25T05:33:11.210Z,9.52
2023-04-25T05:35:40.267Z,9.63
2023-04-25T05:38:08.291Z,9.74
2023-04-25T05:40:55.155Z,9.86
2023-04-25T05:43:48.168Z,9.98
2023-04-25T05:46:23.631Z,10.10
2023-04-25T05:49:23.732Z,10.35
2023-04-25T05:52:17.732Z,10.76
2023-04-25T05:55:04.877Z,11.17
2023-04-25T05:57:33.669Z,11.45
2023-04-25T06:00:02.263Z,11.70
2023-04-25T06:02:43.080Z,12.02
2023-04-25T06:05:12.792Z,12.29
2023-04-25T06:07:40.978Z,12.55
2023-04-25T06:10:09.591Z,12.87
2023-04-25T06:12:39.354Z,12.99
2023-04-25T06:15:20.102Z,12.93
2023-04-25T06:17:52.301Z,12.82
2023-04-25T06:20:24.251Z,12.86
2023-04-25T06:22:53.015Z,12.98
2023-04-25T06:25:22.316Z,13.06
2023-04-25T06:27:50.536Z,13.12
2023-04-25T06:30:23.471Z,13.17
2023-04-25T06:32:54.373Z,13.23
2023-04-25T06:35:22.625Z,13.33
2023-04-25T06:37:50.696Z,13.42
2023-04-25T06:40:20.758Z,13.51
2023-04-25T06:42:49.307Z,13.57
2023-04-25T06:45:44.096Z,13.63
2023-04-25T06:48:12.827Z,13.64
2023-04-25T06:50:40.895Z,13.67
2023-04-25T06:53:09.875Z,13.72
2023-04-25T06:55:39.553Z,13.77
2023-04-25T06:58:22.450Z,13.83
2023-04-25T07:00:55.854Z,13.89
2023-04-25T07:03:25.763Z,13.95
2023-04-25T07:05:57.446Z,13.94
2023-04-25T07:08:25.909Z,13.96
2023-04-25T07:10:53.836Z,13.99
2023-04-25T07:13:21.946Z,14.03
2023-04-25T07:15:50.100Z,14.06
2023-04-25T07:18:19.047Z,14.10
2023-04-25T07:20:47.020Z,14.11
2023-04-25T07:23:15.138Z,14.14
2023-04-25T07:25:43.468Z,14.24
2023-04-25T07:28:11.575Z,14.34
2023-04-25T07:30:39.561Z,14.44
2023-04-25T07:33:07.731Z,14.61
2023-04-25T07:35:36.155Z,14.82
2023-04-25T07:38:04.584Z,15.03
2023-04-25T07:40:32.573Z,15.15
2023-04-25T07:43:04.803Z,15.24
2023-04-25T07:45:48.653Z,15.34
2023-04-25T07:48:22.280Z,15.45
2023-04-25T07:50:51.173Z,15.60
2023-04-25T07:53:19.327Z,15.74
2023-04-25T07:55:53.020Z,15.89
2023-04-25T07:58:23.127Z,16.06
2023-04-25T08:00:59.390Z,16.16
2023-04-25T08:03:43.832Z,16.06
2023-04-25T08:06:17.445Z,15.80
2023-04-25T08:08:53.018Z,15.73
2023-04-25T08:11:22.610Z,15.73
2023-04-25T08:13:51.177Z,15.69
2023-04-25T08:16:19.645Z,15.60
2023-04-25T08:18:48.100Z,15.44
2023-04-25T08:21:16.463Z,15.29
2023-04-25T08:23:45.934Z,15.15
2023-04-25T08:26:26.421Z,15.20
2023-04-25T08:28:54.526Z,15.39
2023-04-25T08:31:23.612Z,15.55
2023-04-25T08:33:59.229Z,15.63
2023-04-25T08:36:39.817Z,15.70
2023-04-25T08:39:22.030Z,15.78
2023-04-25T08:42:11.695Z,15.44
2023-04-25T08:44:39.877Z,15.17
2023-04-25T08:47:08.027Z,14.84
2023-04-25T08:49:54.975Z,14.54
2023-04-25T08:52:25.630Z,14.46
2023-04-25T08:54:56.506Z,14.47
2023-04-25T08:57:26.204Z,14.54
2023-04-25T08:59:54.158Z,14.51
2023-04-25T09:02:23.332Z,14.68
2023-04-25T09:04:55.500Z,14.89
2023-04-25T09:07:23.782Z,14.88
2023-04-25T09:09:51.769Z,14.78
2023-04-25T09:12:21.791Z,14.77
2023-04-25T09:15:20.299Z,14.92
2023-04-25T09:17:57.120Z,14.82
2023-04-25T09:20:26.059Z,14.67
2023-04-25T09:23:08.032Z,14.51
2023-04-25T09:25:40.044Z,14.32
2023-04-25T09:28:10.071Z,14.27
2023-04-25T09:30:38.216Z,14.34
2023-04-25T09:33:12.310Z,14.20
2023-04-25T09:35:44.672Z,14.07
2023-04-25T09:38:19.671Z,13.97
2023-04-25T09:41:09.069Z,14.00
2023-04-25T09:43:40.934Z,14.07
2023-04-25T09:46:12.783Z,14.28
2023-04-25T09:48:50.537Z,14.50
2023-04-25T09:51:19.632Z,14.85
2023-04-25T09:53:52.092Z,15.19
2023-04-25T09:56:38.511Z,15.35
2023-04-25T09:59:08.404Z,15.28
2023-04-25T10:01:42.401Z,15.27
2023-04-25T10:04:16.957Z,15.22
2023-04-25T10:06:51.490Z,15.21
2023-04-25T10:09:22.318Z,15.28
2023-04-25T10:11:52.082Z,15.42
2023-04-25T10:14:20.537Z,15.41
2023-04-25T10:31:23.974Z,15.46
2023-04-25T10:33:52.511Z,15.63
2023-04-25T10:36:23.687Z,15.62
2023-04-25T10:38:52.540Z,15.39
2023-04-25T10:41:23.946Z,15.26
2023-04-25T10:44:01.955Z,15.19
2023-04-25T10:46:31.838Z,15.22
2023-04-25T10:49:02.022Z,15.11
2023-04-25T10:54:21.197Z,15.09
2023-04-25T10:56:50.237Z,15.20
2023-04-25T10:59:19.940Z,15.27
2023-04-25T11:01:57.788Z,15.14
2023-04-25T11:04:30.223Z,14.93
2023-04-25T11:07:08.278Z,14.85
2023-04-25T11:09:39.639Z,14.88
2023-04-25T11:12:10.699Z,15.00
2023-04-25T11:17:12.424Z,15.22
2023-04-25T11:19:40.603Z,15.32
2023-04-25T11:22:08.927Z,15.36
2023-04-25T11:24:37.692Z,15.41
2023-04-25T11:27:09.470Z,15.56
2023-04-25T11:29:37.539Z,15.61
2023-04-25T11:32:06.178Z,15.75
2023-04-25T11:34:35.000Z,15.96
2023-04-25T11:37:04.122Z,16.21
2023-04-25T11:39:32.073Z,16.27
2023-04-25T11:42:02.078Z,16.12
2023-04-25T11:44:31.017Z,16.09
2023-04-25T11:46:59.089Z,16.21
2023-04-25T11:49:32.577Z,16.35
2023-04-25T11:52:00.931Z,16.39
2023-04-25T11:54:28.868Z,16.26
2023-04-25T11:56:57.672Z,15.94
2023-04-25T11:59:26.898Z,15.59
2023-04-25T12:01:55.252Z,15.40
2023-04-25T12:04:25.841Z,15.17
2023-04-25T12:06:55.729Z,15.00
2023-04-25T12:09:32.167Z,14.83
2023-04-25T12:12:04.121Z,14.87
2023-04-25T12:14:34.962Z,14.89
2023-04-25T12:17:05.284Z,14.94
2023-04-25T12:19:36.159Z,15.00
2023-04-25T12:22:12.234Z,15.20
2023-04-25T12:24:40.208Z,15.50
2023-04-25T12:27:11.425Z,15.65
2023-04-25T12:29:49.474Z,15.50
2023-04-25T12:32:18.830Z,15.48
2023-04-25T12:34:47.333Z,15.42
2023-04-25T12:37:16.019Z,15.27
2023-04-25T12:39:44.022Z,15.17
2023-04-25T12:42:14.757Z,15.23
2023-04-25T12:44:42.959Z,15.16
2023-04-25T12:47:11.428Z,15.10
2023-04-25T12:49:39.585Z,14.94
2023-04-25T12:52:07.614Z,14.80
2023-04-25T12:54:36.369Z,14.79
2023-04-25T12:57:04.417Z,14.83
2023-04-25T12:59:32.713Z,14.88
2023-04-25T13:02:00.760Z,15.10
2023-04-25T13:04:29.126Z,15.20
2023-04-25T13:06:57.601Z,15.20
2023-04-25T13:09:25.595Z,15.25
2023-04-25T13:11:56.128Z,15.25
2023-04-25T13:14:26.235Z,15.08
2023-04-25T13:16:55.506Z,15.02
2023-04-25T13:19:23.600Z,15.04
2023-04-25T13:21:51.768Z,15.07
2023-04-25T13:24:19.953Z,15.11
2023-04-25T13:26:47.886Z,15.11
2023-04-25T13:29:15.807Z,15.11
2023-04-25T13:31:43.825Z,15.03
2023-04-25T13:34:13.662Z,14.95
2023-04-25T13:36:41.785Z,14.92
2023-04-25T13:39:09.729Z,14.85
2023-04-25T13:41:38.141Z,14.75
2023-04-25T13:44:06.219Z,14.79
2023-04-25T13:46:46.572Z,14.88
2023-04-25T13:49:15.640Z,14.89
2023-04-25T13:51:43.766Z,14.85
2023-04-25T13:54:11.917Z,14.71
2023-04-25T13:56:40.012Z,14.63
2023-04-25T13:59:08.073Z,14.64
2023-04-25T14:01:37.051Z,14.68
2023-04-25T14:04:05.657Z,14.74
2023-04-25T14:06:34.138Z,14.66
2023-04-25T14:09:02.336Z,14.64
2023-04-25T14:11:30.699Z,14.56
2023-04-25T14:13:58.601Z,14.56
2023-04-25T14:16:26.763Z,14.68
2023-04-25T14:18:55.647Z,14.64
2023-04-25T14:21:23.554Z,14.47
2023-04-25T14:23:51.713Z,14.44
2023-04-25T14:26:20.076Z,14.39
2023-04-25T14:28:48.039Z,14.45
2023-04-25T14:31:16.506Z,14.60
2023-04-25T14:33:44.527Z,14.66
2023-04-25T14:36:12.546Z,14.54
2023-04-25T14:38:40.621Z,14.41
2023-04-25T14:41:08.628Z,14.18
2023-04-25T14:43:37.536Z,13.91
2023-04-25T14:46:05.683Z,13.66
2023-04-25T14:48:34.627Z,13.44
2023-04-25T14:51:03.137Z,13.25
2023-04-25T14:53:32.522Z,13.16
2023-04-25T14:56:00.561Z,13.07
2023-04-25T14:58:28.898Z,12.89
2023-04-25T15:00:57.403Z,12.73
2023-04-25T15:03:25.539Z,12.52
2023-04-25T15:05:56.194Z,12.42
2023-04-25T15:08:24.161Z,12.37
2023-04-25T15:10:52.153Z,12.20
2023-04-25T15:13:20.429Z,12.12
2023-04-25T15:15:52.168Z,12.02
2023-04-25T15:18:24.727Z,11.87
2023-04-25T15:20:54.213Z,11.84
2023-04-25T15:23:22.499Z,12.03
2023-04-25T15:25:52.830Z,12.39
2023-04-25T15:28:22.420Z,12.74
2023-04-25T15:30:51.492Z,12.99
2023-04-25T15:33:19.524Z,12.95
2023-04-25T15:35:47.702Z,12.70
2023-04-25T15:38:15.709Z,12.44
2023-04-25T15:40:43.822Z,12.21
2023-04-25T15:43:16.080Z,12.00
2023-04-25T15:45:45.390Z,11.87
2023-04-25T15:48:13.490Z,11.80
2023-04-25T15:50:42.545Z,11.70
2023-04-25T15:53:11.223Z,11.63
2023-04-25T15:55:39.749Z,11.57
2023-04-25T15:58:07.990Z,11.53
2023-04-25T16:00:37.911Z,11.47
2023-04-25T16:03:06.206Z,11.33
2023-04-25T16:05:34.458Z,11.18
2023-04-25T16:08:03.853Z,11.03
2023-04-25T16:10:32.959Z,10.90
2023-04-25T16:13:00.852Z,10.81
2023-04-25T16:15:28.797Z,10.73
2023-04-25T16:17:56.968Z,10.64
2023-04-25T16:20:24.985Z,10.50
2023-04-25T16:22:52.962Z,10.24
2023-04-25T16:25:22.178Z,9.93
2023-04-25T16:27:50.418Z,9.63
2023-04-25T16:30:18.588Z,9.38
2023-04-25T16:32:46.699Z,9.22
2023-04-25T16:35:14.654Z,9.09
2023-04-25T16:45:06.670Z,8.70
2023-04-25T16:47:33.272Z,8.59
2023-04-25T16:50:00.972Z,8.52
2023-04-25T16:52:27.552Z,8.49
2023-04-25T16:54:54.123Z,8.49
2023-04-25T16:57:20.925Z,8.53
2023-04-25T16:59:47.605Z,8.60
2023-04-25T17:02:15.040Z,8.68
2023-04-25T17:04:41.841Z,8.74
2023-04-25T17:07:08.640Z,8.77
2023-04-25T17:09:35.593Z,8.81
2023-04-25T17:12:03.386Z,8.85
2023-04-25T17:14:31.750Z,8.90
2023-04-25T17:16:58.309Z,8.91
2023-04-25T17:19:25.440Z,8.94
2023-04-25T17:21:52.006Z,9.01
2023-04-25T17:24:20.562Z,9.06
2023-04-25T17:26:48.730Z,9.11
2023-04-25T17:29:15.659Z,9.14
2023-04-25T17:31:42.296Z,9.16
2023-04-25T17:34:09.332Z,9.16
2023-04-25T17:36:36.211Z,9.13
2023-04-25T17:39:05.450Z,9.11
2023-04-25T17:41:32.088Z,9.10
2023-04-25T17:43:58.602Z,9.11
2023-04-25T17:46:26.775Z,9.10
2023-04-25T17:48:53.653Z,9.10
2023-04-25T17:51:20.549Z,9.09
2023-04-25T17:53:47.428Z,9.06
2023-04-25T17:56:25.884Z,9.04
2023-04-25T17:58:55.218Z,9.02
2023-04-25T18:01:22.290Z,9.00
2023-04-25T18:03:49.265Z,8.98
2023-04-25T18:06:16.288Z,8.96
2023-04-25T18:08:44.090Z,8.96
2023-04-25T18:11:11.198Z,8.95
2023-04-25T18:13:38.023Z,8.95
2023-04-25T18:16:05.201Z,8.95
2023-04-25T18:18:35.469Z,8.94
2023-04-25T18:24:17.815Z,8.87
2023-04-25T18:26:45.877Z,8.81
2023-04-25T18:29:29.005Z,8.76
2023-04-25T18:31:56.093Z,8.74
2023-04-25T18:34:25.474Z,8.70
2023-04-25T18:36:55.583Z,8.64
2023-04-25T18:39:23.844Z,8.57
2023-04-25T18:41:57.984Z,8.46
2023-04-25T18:44:27.751Z,8.35
2023-04-25T18:46:54.387Z,8.24
2023-04-25T18:49:20.928Z,8.13
2023-04-25T18:51:48.470Z,8.03
2023-04-25T18:54:15.015Z,7.95
2023-04-25T18:56:41.612Z,7.87
2023-04-25T18:59:09.617Z,7.81
2023-04-25T19:01:36.193Z,7.75
2023-04-25T19:04:06.410Z,7.71
2023-04-25T19:06:33.313Z,7.67
2023-04-25T19:08:59.965Z,7.63
2023-04-25T19:11:26.571Z,7.59
2023-04-25T19:13:56.087Z,7.55
2023-04-25T19:16:23.244Z,7.52
2023-04-25T19:18:52.146Z,7.48
2023-04-25T19:21:19.306Z,7.44
2023-04-25T19:23:46.144Z,7.42
2023-04-25T19:26:12.818Z,7.38
2023-04-25T19:28:44.112Z,7.34
2023-04-25T19:31:11.191Z,7.30
2023-04-25T19:33:37.878Z,7.28
2023-04-25T19:36:04.562Z,7.24
2023-04-25T19:38:31.210Z,7.21
2023-04-25T19:40:57.913Z,7.18
2023-04-25T19:43:24.514Z,7.16
2023-04-25T19:45:51.749Z,7.12
2023-04-25T19:48:19.257Z,7.07
2023-04-25T19:50:45.850Z,7.03
2023-04-25T19:53:12.360Z,7.00
2023-04-25T19:55:38.920Z,7.00
2023-04-25T19:58:06.328Z,7.00
2023-04-25T20:00:32.965Z,6.99
2023-04-25T20:02:59.776Z,6.99
2023-04-25T20:05:26.752Z,6.98
2023-04-25T20:07:53.378Z,6.97
2023-04-25T20:10:20.057Z,6.97
2023-04-25T20:12:46.698Z,6.97
2023-04-25T20:15:13.464Z,6.96
2023-04-25T20:17:43.273Z,6.93
2023-04-25T20:20:10.753Z,6.92
2023-04-25T20:22:39.381Z,6.90
2023-04-25T20:25:08.046Z,6.87
2023-04-25T20:27:37.246Z,6.84
2023-04-25T20:30:09.316Z,6.81
2023-04-25T20:32:36.323Z,6.78
2023-04-25T20:35:05.033Z,6.74
2023-04-25T20:37:31.597Z,6.70
2023-04-25T20:39:59.268Z,6.65
2023-04-25T20:42:26.214Z,6.58
2023-04-25T20:44:53.931Z,6.53
2023-04-25T20:47:21.166Z,6.50
2023-04-25T20:49:47.902Z,6.47
2023-04-25T20:52:15.445Z,6.46
2023-04-25T20:54:42.610Z,6.45
2023-04-25T20:57:09.197Z,6.45
2023-04-25T20:59:35.751Z,6.43
2023-04-25T21:02:02.365Z,6.42
2023-04-25T21:04:29.370Z,6.40
2023-04-25T21:06:56.019Z,6.37
2023-04-25T21:09:22.490Z,6.34
2023-04-25T21:11:50.441Z,6.31
2023-04-25T21:14:17.891Z,6.29
2023-04-25T21:16:44.411Z,6.28
2023-04-25T21:19:10.953Z,6.25
2023-04-25T21:21:37.501Z,6.23
2023-04-25T21:24:04.345Z,6.22
2023-04-25T21:26:30.980Z,6.19
2023-04-25T21:28:57.580Z,6.15
2023-04-25T21:31:24.336Z,6.12
2023-04-25T21:33:51.172Z,6.08
2023-04-25T21:36:17.754Z,6.01
2023-04-25T21:38:44.277Z,5.96
2023-04-25T21:41:11.407Z,5.92
2023-04-25T21:43:37.929Z,5.88
2023-04-25T21:48:33.911Z,5.81
2023-04-25T21:51:00.445Z,5.80
2023-04-25T21:53:27.108Z,5.79
2023-04-25T21:55:53.657Z,5.78
2023-04-25T21:58:20.211Z,5.77
2023-04-25T22:00:47.382Z,5.75
2023-04-25T22:03:15.439Z,5.73
2023-04-25T22:05:43.617Z,5.71
2023-04-25T22:08:10.170Z,5.69
2023-04-25T22:10:37.824Z,5.68
2023-04-25T22:13:04.945Z,5.67
2023-04-25T22:15:31.431Z,5.68
2023-04-25T22:17:58.540Z,5.69
2023-04-25T22:20:26.083Z,5.71
2023-04-25T22:22:53.944Z,5.74
2023-04-25T22:25:21.368Z,5.78
2023-04-25T22:27:48.575Z,5.82
2023-04-25T22:30:15.237Z,5.84
2023-04-25T22:32:42.487Z,5.85
2023-04-25T22:35:09.827Z,5.86
2023-04-25T22:37:36.448Z,5.86
2023-04-25T22:40:06.934Z,5.87
2023-04-25T22:42:41.455Z,5.87
2023-04-25T22:45:09.335Z,5.86
2023-04-25T22:47:37.142Z,5.86
2023-04-25T22:50:07.145Z,5.84
2023-04-25T22:52:34.123Z,5.80
2023-04-25T22:55:04.008Z,5.78
2023-04-25T22:57:30.659Z,5.75
2023-04-25T22:59:57.227Z,5.72
2023-04-25T23:02:24.336Z,5.67
2023-04-25T23:04:52.520Z,5.63
2023-04-25T23:07:19.686Z,5.59
2023-04-25T23:09:46.381Z,5.56
2023-04-25T23:12:12.927Z,5.54
2023-04-25T23:14:39.432Z,5.52
2023-04-25T23:17:06.148Z,5.49
2023-04-25T23:19:33.696Z,5.46
2023-04-25T23:22:00.208Z,5.43
2023-04-25T23:24:26.760Z,5.41
2023-04-25T23:26:53.321Z,5.39
2023-04-25T23:29:20.243Z,5.36
2023-04-25T23:31:46.789Z,5.32
2023-04-25T23:34:13.260Z,5.29
2023-04-25T23:36:39.804Z,5.24
2023-04-25T23:39:09.312Z,5.22
2023-04-25T23:41:35.896Z,5.21
2023-04-25T23:44:02.851Z,5.20
2023-04-25T23:46:30.320Z,5.20
2023-04-25T23:48:57.019Z,5.19
2023-04-25T23:51:24.622Z,5.20
2023-04-25T23:53:51.228Z,5.19
2023-04-25T23:56:17.727Z,5.22
2023-04-25T23:58:44.251Z,5.26
